sensor_id;sensor_type;location;lat;lon;timestamp;P1;durP1;ratioP1;P2;durP2;ratioP2
41799;SDS011;27468;47.460;19.034;2023-04-29T00:00:04;9.63;;;5.55;;
41799;SDS011;27468;47.460;19.034;2023-04-29T00:02:34;11.70;;;5.43;;
41799;SDS011;27468;47.460;19.034;2023-04-29T00:04:59;9.75;;;5.32;;
41799;SDS011;27468;47.460;19.034;2023-04-29T00:07:25;11.80;;;5.40;;
41799;SDS011;27468;47.460;19.034;2023-04-29T00:09:50;7.78;;;4.60;;
41799;SDS011;27468;47.460;19.034;2023-04-29T00:12:16;10.23;;;5.40;;
41799;SDS011;27468;47.460;19.034;2023-04-29T00:14:42;10.82;;;5.07;;
41799;SDS011;27468;47.460;19.034;2023-04-29T00:17:07;7.95;;;4.80;;
41799;SDS011;27468;47.460;19.034;2023-04-29T00:19:33;9.07;;;5.70;;
41799;SDS011;27468;47.460;19.034;2023-04-29T00:21:59;9.52;;;5.22;;
41799;SDS011;27468;47.460;19.034;2023-04-29T00:24:25;8.40;;;5.32;;
41799;SDS011;27468;47.460;19.034;2023-04-29T00:26:51;6.20;;;4.13;;
41799;SDS011;27468;47.460;19.034;2023-04-29T00:29:16;6.00;;;3.40;;
41799;SDS011;27468;47.460;19.034;2023-04-29T00:31:42;7.55;;;3.70;;
41799;SDS011;27468;47.460;19.034;2023-04-29T00:34:08;5.63;;;3.30;;
41799;SDS011;27468;47.460;19.034;2023-04-29T00:36:33;5.65;;;3.08;;
41799;SDS011;27468;47.460;19.034;2023-04-29T00:38:59;4.15;;;2.80;;
41799;SDS011;27468;47.460;19.034;2023-04-29T00:41:24;4.97;;;2.85;;
41799;SDS011;27468;47.460;19.034;2023-04-29T00:43:50;4.38;;;3.13;;
41799;SDS011;27468;47.460;19.034;2023-04-29T00:46:16;3.63;;;2.65;;
41799;SDS011;27468;47.460;19.034;2023-04-29T00:48:42;5.82;;;3.65;;
41799;SDS011;27468;47.460;19.034;2023-04-29T00:51:07;3.95;;;3.30;;
41799;SDS011;27468;47.460;19.034;2023-04-29T00:53:33;4.88;;;2.90;;
41799;SDS011;27468;47.460;19.034;2023-04-29T00:56:00;6.18;;;3.13;;
41799;SDS011;27468;47.460;19.034;2023-04-29T00:58:27;5.55;;;3.33;;
41799;SDS011;27468;47.460;19.034;2023-04-29T01:00:58;4.13;;;2.88;;
41799;SDS011;27468;47.460;19.034;2023-04-29T01:03:25;6.10;;;3.00;;
41799;SDS011;27468;47.460;19.034;2023-04-29T01:05:54;5.90;;;3.05;;
41799;SDS011;27468;47.460;19.034;2023-04-29T01:11:21;5.10;;;2.90;;
41799;SDS011;27468;47.460;19.034;2023-04-29T01:13:57;4.10;;;2.50;;
41799;SDS011;27468;47.460;19.034;2023-04-29T01:16:37;3.30;;;2.70;;
41799;SDS011;27468;47.460;19.034;2023-04-29T01:21:56;3.85;;;2.47;;
41799;SDS011;27468;47.460;19.034;2023-04-29T01:24:21;3.20;;;2.60;;
41799;SDS011;27468;47.460;19.034;2023-04-29T01:26:55;5.03;;;2.90;;
41799;SDS011;27468;47.460;19.034;2023-04-29T01:32:28;5.90;;;3.00;;
41799;SDS011;27468;47.460;19.034;2023-04-29T01:45:28;4.60;;;2.35;;
41799;SDS011;27468;47.460;19.034;2023-04-29T01:47:55;4.47;;;2.47;;
41799;SDS011;27468;47.460;19.034;2023-04-29T01:50:21;4.35;;;2.78;;
41799;SDS011;27468;47.460;19.034;2023-04-29T01:52:47;3.35;;;2.28;;
41799;SDS011;27468;47.460;19.034;2023-04-29T01:55:15;5.53;;;3.10;;
41799;SDS011;27468;47.460;19.034;2023-04-29T01:57:41;3.75;;;3.00;;
41799;SDS011;27468;47.460;19.034;2023-04-29T02:00:07;4.93;;;3.03;;
41799;SDS011;27468;47.460;19.034;2023-04-29T02:02:33;3.50;;;2.78;;
41799;SDS011;27468;47.460;19.034;2023-04-29T02:04:58;3.95;;;2.20;;
41799;SDS011;27468;47.460;19.034;2023-04-29T02:07:24;6.00;;;2.90;;
41799;SDS011;27468;47.460;19.034;2023-04-29T02:09:49;4.20;;;2.70;;
41799;SDS011;27468;47.460;19.034;2023-04-29T02:12:15;4.25;;;2.22;;
41799;SDS011;27468;47.460;19.034;2023-04-29T02:14:40;6.32;;;2.55;;
41799;SDS011;27468;47.460;19.034;2023-04-29T02:17:05;3.40;;;2.45;;
41799;SDS011;27468;47.460;19.034;2023-04-29T02:19:31;4.28;;;2.97;;
41799;SDS011;27468;47.460;19.034;2023-04-29T02:21:56;4.90;;;2.70;;
41799;SDS011;27468;47.460;19.034;2023-04-29T02:24:22;4.43;;;2.75;;
41799;SDS011;27468;47.460;19.034;2023-04-29T02:26:47;3.88;;;2.72;;
41799;SDS011;27468;47.460;19.034;2023-04-29T02:29:12;3.15;;;2.30;;
41799;SDS011;27468;47.460;19.034;2023-04-29T02:31:38;4.40;;;2.63;;
41799;SDS011;27468;47.460;19.034;2023-04-29T02:34:04;4.40;;;2.28;;
41799;SDS011;27468;47.460;19.034;2023-04-29T02:36:29;4.15;;;2.80;;
41799;SDS011;27468;47.460;19.034;2023-04-29T02:38:55;4.15;;;2.85;;
41799;SDS011;27468;47.460;19.034;2023-04-29T02:41:21;3.08;;;2.17;;
41799;SDS011;27468;47.460;19.034;2023-04-29T02:43:47;4.43;;;2.60;;
41799;SDS011;27468;47.460;19.034;2023-04-29T02:46:13;3.15;;;2.50;;
41799;SDS011;27468;47.460;19.034;2023-04-29T02:48:40;3.75;;;2.42;;
41799;SDS011;27468;47.460;19.034;2023-04-29T02:51:06;3.03;;;2.42;;
41799;SDS011;27468;47.460;19.034;2023-04-29T02:53:31;3.65;;;2.58;;
41799;SDS011;27468;47.460;19.034;2023-04-29T02:55:57;3.25;;;2.20;;
41799;SDS011;27468;47.460;19.034;2023-04-29T02:58:22;5.05;;;2.67;;
41799;SDS011;27468;47.460;19.034;2023-04-29T03:00:48;4.20;;;2.33;;
41799;SDS011;27468;47.460;19.034;2023-04-29T03:03:13;4.65;;;2.10;;
41799;SDS011;27468;47.460;19.034;2023-04-29T03:05:39;4.57;;;2.58;;
41799;SDS011;27468;47.460;19.034;2023-04-29T03:08:05;5.32;;;2.97;;
41799;SDS011;27468;47.460;19.034;2023-04-29T03:10:30;5.07;;;2.60;;
41799;SDS011;27468;47.460;19.034;2023-04-29T03:12:55;3.78;;;2.42;;
41799;SDS011;27468;47.460;19.034;2023-04-29T03:15:21;4.72;;;2.42;;
41799;SDS011;27468;47.460;19.034;2023-04-29T03:17:46;4.85;;;2.88;;
41799;SDS011;27468;47.460;19.034;2023-04-29T03:20:12;3.20;;;2.53;;
41799;SDS011;27468;47.460;19.034;2023-04-29T03:22:38;3.95;;;2.35;;
41799;SDS011;27468;47.460;19.034;2023-04-29T03:25:03;3.95;;;2.15;;
41799;SDS011;27468;47.460;19.034;2023-04-29T03:27:30;3.97;;;2.33;;
41799;SDS011;27468;47.460;19.034;2023-04-29T03:29:55;3.78;;;2.40;;
41799;SDS011;27468;47.460;19.034;2023-04-29T03:32:21;4.05;;;2.97;;
41799;SDS011;27468;47.460;19.034;2023-04-29T03:34:46;3.38;;;2.20;;
41799;SDS011;27468;47.460;19.034;2023-04-29T03:37:13;4.10;;;2.55;;
41799;SDS011;27468;47.460;19.034;2023-04-29T03:39:40;3.03;;;2.30;;
41799;SDS011;27468;47.460;19.034;2023-04-29T03:42:06;4.97;;;2.10;;
41799;SDS011;27468;47.460;19.034;2023-04-29T03:44:31;3.72;;;2.35;;
41799;SDS011;27468;47.460;19.034;2023-04-29T03:46:56;5.82;;;2.40;;
41799;SDS011;27468;47.460;19.034;2023-04-29T03:49:22;2.45;;;2.13;;
41799;SDS011;27468;47.460;19.034;2023-04-29T03:51:47;3.70;;;2.38;;
41799;SDS011;27468;47.460;19.034;2023-04-29T03:54:13;4.93;;;2.50;;
41799;SDS011;27468;47.460;19.034;2023-04-29T03:56:38;3.63;;;2.33;;
41799;SDS011;27468;47.460;19.034;2023-04-29T03:59:05;4.90;;;2.72;;
41799;SDS011;27468;47.460;19.034;2023-04-29T04:01:30;4.03;;;2.28;;
41799;SDS011;27468;47.460;19.034;2023-04-29T04:03:56;4.00;;;2.20;;
41799;SDS011;27468;47.460;19.034;2023-04-29T04:06:21;3.50;;;2.33;;
41799;SDS011;27468;47.460;19.034;2023-04-29T04:08:47;3.78;;;2.45;;
41799;SDS011;27468;47.460;19.034;2023-04-29T04:11:12;4.25;;;2.20;;
41799;SDS011;27468;47.460;19.034;2023-04-29T04:13:40;4.35;;;2.42;;
41799;SDS011;27468;47.460;19.034;2023-04-29T04:16:07;4.50;;;2.38;;
41799;SDS011;27468;47.460;19.034;2023-04-29T04:18:34;4.57;;;2.33;;
41799;SDS011;27468;47.460;19.034;2023-04-29T04:21:04;4.93;;;2.53;;
41799;SDS011;27468;47.460;19.034;2023-04-29T04:23:33;3.75;;;2.20;;
41799;SDS011;27468;47.460;19.034;2023-04-29T04:25:58;3.10;;;2.38;;
41799;SDS011;27468;47.460;19.034;2023-04-29T04:28:24;4.55;;;2.65;;
41799;SDS011;27468;47.460;19.034;2023-04-29T04:30:49;5.20;;;2.63;;
41799;SDS011;27468;47.460;19.034;2023-04-29T04:33:15;5.85;;;2.75;;
41799;SDS011;27468;47.460;19.034;2023-04-29T04:35:41;4.70;;;2.40;;
41799;SDS011;27468;47.460;19.034;2023-04-29T04:38:06;3.88;;;2.78;;
41799;SDS011;27468;47.460;19.034;2023-04-29T04:40:33;2.97;;;2.08;;
41799;SDS011;27468;47.460;19.034;2023-04-29T04:42:58;4.78;;;2.60;;
41799;SDS011;27468;47.460;19.034;2023-04-29T04:45:24;4.80;;;2.80;;
41799;SDS011;27468;47.460;19.034;2023-04-29T04:47:52;4.85;;;2.50;;
41799;SDS011;27468;47.460;19.034;2023-04-29T04:50:18;4.20;;;2.88;;
41799;SDS011;27468;47.460;19.034;2023-04-29T04:52:44;5.47;;;3.00;;
41799;SDS011;27468;47.460;19.034;2023-04-29T04:55:10;5.63;;;3.10;;
41799;SDS011;27468;47.460;19.034;2023-04-29T04:57:35;4.65;;;2.63;;
41799;SDS011;27468;47.460;19.034;2023-04-29T05:00:00;4.10;;;2.53;;
41799;SDS011;27468;47.460;19.034;2023-04-29T05:02:27;3.45;;;2.72;;
41799;SDS011;27468;47.460;19.034;2023-04-29T05:04:53;4.63;;;3.00;;
41799;SDS011;27468;47.460;19.034;2023-04-29T05:07:18;4.10;;;2.70;;
41799;SDS011;27468;47.460;19.034;2023-04-29T05:09:44;4.05;;;2.40;;
41799;SDS011;27468;47.460;19.034;2023-04-29T05:12:09;4.57;;;3.00;;
41799;SDS011;27468;47.460;19.034;2023-04-29T05:14:35;5.20;;;3.00;;
41799;SDS011;27468;47.460;19.034;2023-04-29T05:17:00;4.82;;;2.65;;
41799;SDS011;27468;47.460;19.034;2023-04-29T05:19:26;4.13;;;2.83;;
41799;SDS011;27468;47.460;19.034;2023-04-29T05:21:51;5.50;;;3.00;;
41799;SDS011;27468;47.460;19.034;2023-04-29T05:24:17;3.65;;;2.40;;
41799;SDS011;27468;47.460;19.034;2023-04-29T05:26:42;4.28;;;2.70;;
41799;SDS011;27468;47.460;19.034;2023-04-29T05:29:08;4.85;;;3.03;;
41799;SDS011;27468;47.460;19.034;2023-04-29T05:31:36;4.80;;;2.67;;
41799;SDS011;27468;47.460;19.034;2023-04-29T05:34:03;3.80;;;2.67;;
41799;SDS011;27468;47.460;19.034;2023-04-29T05:36:29;4.20;;;2.75;;
41799;SDS011;27468;47.460;19.034;2023-04-29T05:38:54;3.40;;;2.45;;
41799;SDS011;27468;47.460;19.034;2023-04-29T05:41:19;4.40;;;2.83;;
41799;SDS011;27468;47.460;19.034;2023-04-29T05:43:45;4.97;;;3.35;;
41799;SDS011;27468;47.460;19.034;2023-04-29T05:46:10;5.80;;;3.15;;
41799;SDS011;27468;47.460;19.034;2023-04-29T05:48:36;3.97;;;2.78;;
41799;SDS011;27468;47.460;19.034;2023-04-29T05:51:01;4.32;;;3.22;;
41799;SDS011;27468;47.460;19.034;2023-04-29T05:53:27;4.85;;;3.05;;
41799;SDS011;27468;47.460;19.034;2023-04-29T05:55:52;4.40;;;3.22;;
41799;SDS011;27468;47.460;19.034;2023-04-29T05:58:17;5.57;;;3.03;;
41799;SDS011;27468;47.460;19.034;2023-04-29T06:00:43;7.43;;;3.30;;
41799;SDS011;27468;47.460;19.034;2023-04-29T06:03:09;6.72;;;3.60;;
41799;SDS011;27468;47.460;19.034;2023-04-29T06:05:37;5.85;;;3.35;;
41799;SDS011;27468;47.460;19.034;2023-04-29T06:08:03;6.53;;;3.20;;
41799;SDS011;27468;47.460;19.034;2023-04-29T06:10:29;6.00;;;3.72;;
41799;SDS011;27468;47.460;19.034;2023-04-29T06:12:56;6.55;;;3.53;;
41799;SDS011;27468;47.460;19.034;2023-04-29T06:15:21;5.70;;;3.88;;
41799;SDS011;27468;47.460;19.034;2023-04-29T06:17:46;6.82;;;4.35;;
41799;SDS011;27468;47.460;19.034;2023-04-29T06:20:12;7.97;;;4.00;;
41799;SDS011;27468;47.460;19.034;2023-04-29T06:22:38;11.30;;;4.05;;
41799;SDS011;27468;47.460;19.034;2023-04-29T06:25:03;9.90;;;4.40;;
41799;SDS011;27468;47.460;19.034;2023-04-29T06:27:29;7.72;;;3.67;;
41799;SDS011;27468;47.460;19.034;2023-04-29T06:29:55;6.53;;;3.78;;
41799;SDS011;27468;47.460;19.034;2023-04-29T06:32:20;6.88;;;4.07;;
41799;SDS011;27468;47.460;19.034;2023-04-29T06:34:45;5.88;;;3.67;;
41799;SDS011;27468;47.460;19.034;2023-04-29T06:37:11;7.60;;;3.65;;
41799;SDS011;27468;47.460;19.034;2023-04-29T06:39:36;8.30;;;4.13;;
41799;SDS011;27468;47.460;19.034;2023-04-29T06:42:02;10.85;;;4.13;;
41799;SDS011;27468;47.460;19.034;2023-04-29T06:44:27;10.25;;;4.32;;
41799;SDS011;27468;47.460;19.034;2023-04-29T06:46:53;8.18;;;4.43;;
41799;SDS011;27468;47.460;19.034;2023-04-29T06:49:18;10.93;;;4.20;;
41799;SDS011;27468;47.460;19.034;2023-04-29T06:51:43;10.55;;;4.25;;
41799;SDS011;27468;47.460;19.034;2023-04-29T06:54:09;14.73;;;5.28;;
41799;SDS011;27468;47.460;19.034;2023-04-29T06:56:34;10.65;;;4.68;;
41799;SDS011;27468;47.460;19.034;2023-04-29T06:59:00;10.90;;;4.72;;
41799;SDS011;27468;47.460;19.034;2023-04-29T07:01:25;7.90;;;3.70;;
41799;SDS011;27468;47.460;19.034;2023-04-29T07:03:51;5.82;;;3.53;;
41799;SDS011;27468;47.460;19.034;2023-04-29T07:06:16;5.40;;;3.53;;
41799;SDS011;27468;47.460;19.034;2023-04-29T07:08:42;8.50;;;3.40;;
41799;SDS011;27468;47.460;19.034;2023-04-29T07:11:07;4.78;;;2.83;;
41799;SDS011;27468;47.460;19.034;2023-04-29T07:13:32;4.95;;;2.90;;
41799;SDS011;27468;47.460;19.034;2023-04-29T07:15:58;4.32;;;3.20;;
41799;SDS011;27468;47.460;19.034;2023-04-29T07:18:24;5.18;;;2.75;;
41799;SDS011;27468;47.460;19.034;2023-04-29T07:20:49;4.18;;;2.70;;
41799;SDS011;27468;47.460;19.034;2023-04-29T07:23:16;3.88;;;2.67;;
41799;SDS011;27468;47.460;19.034;2023-04-29T07:25:42;4.45;;;2.80;;
41799;SDS011;27468;47.460;19.034;2023-04-29T07:28:07;5.18;;;3.10;;
41799;SDS011;27468;47.460;19.034;2023-04-29T07:30:33;5.60;;;2.78;;
41799;SDS011;27468;47.460;19.034;2023-04-29T07:32:58;4.35;;;2.85;;
41799;SDS011;27468;47.460;19.034;2023-04-29T07:35:24;4.53;;;3.17;;
41799;SDS011;27468;47.460;19.034;2023-04-29T07:37:50;4.10;;;2.58;;
41799;SDS011;27468;47.460;19.034;2023-04-29T07:40:15;4.85;;;3.05;;
41799;SDS011;27468;47.460;19.034;2023-04-29T07:42:41;5.75;;;2.95;;
41799;SDS011;27468;47.460;19.034;2023-04-29T07:45:07;5.30;;;3.75;;
41799;SDS011;27468;47.460;19.034;2023-04-29T07:47:33;4.18;;;2.60;;
41799;SDS011;27468;47.460;19.034;2023-04-29T07:49:58;4.50;;;2.85;;
41799;SDS011;27468;47.460;19.034;2023-04-29T07:52:24;4.40;;;2.58;;
41799;SDS011;27468;47.460;19.034;2023-04-29T07:54:49;5.28;;;3.13;;
41799;SDS011;27468;47.460;19.034;2023-04-29T07:57:15;5.88;;;3.15;;
41799;SDS011;27468;47.460;19.034;2023-04-29T07:59:40;5.80;;;2.78;;
41799;SDS011;27468;47.460;19.034;2023-04-29T08:02:05;3.83;;;2.97;;
41799;SDS011;27468;47.460;19.034;2023-04-29T08:04:31;4.97;;;2.72;;
41799;SDS011;27468;47.460;19.034;2023-04-29T08:06:57;5.28;;;2.88;;
41799;SDS011;27468;47.460;19.034;2023-04-29T08:09:22;5.93;;;3.17;;
41799;SDS011;27468;47.460;19.034;2023-04-29T08:11:47;5.32;;;2.95;;
41799;SDS011;27468;47.460;19.034;2023-04-29T08:14:13;5.57;;;3.47;;
41799;SDS011;27468;47.460;19.034;2023-04-29T08:16:38;5.28;;;3.67;;
41799;SDS011;27468;47.460;19.034;2023-04-29T08:19:03;3.65;;;3.28;;
41799;SDS011;27468;47.460;19.034;2023-04-29T08:21:29;5.38;;;3.00;;
41799;SDS011;27468;47.460;19.034;2023-04-29T08:23:56;4.75;;;3.25;;
41799;SDS011;27468;47.460;19.034;2023-04-29T08:26:21;4.05;;;3.53;;
41799;SDS011;27468;47.460;19.034;2023-04-29T08:28:47;5.00;;;3.17;;
41799;SDS011;27468;47.460;19.034;2023-04-29T08:31:19;5.72;;;3.05;;
41799;SDS011;27468;47.460;19.034;2023-04-29T08:33:46;5.35;;;2.97;;
41799;SDS011;27468;47.460;19.034;2023-04-29T08:36:12;6.65;;;3.20;;
41799;SDS011;27468;47.460;19.034;2023-04-29T08:38:38;5.72;;;3.58;;
41799;SDS011;27468;47.460;19.034;2023-04-29T08:41:03;4.90;;;3.03;;
41799;SDS011;27468;47.460;19.034;2023-04-29T08:43:31;5.38;;;3.45;;
41799;SDS011;27468;47.460;19.034;2023-04-29T08:46:01;4.63;;;2.80;;
41799;SDS011;27468;47.460;19.034;2023-04-29T08:48:28;4.97;;;3.08;;
41799;SDS011;27468;47.460;19.034;2023-04-29T08:50:54;5.50;;;3.22;;
41799;SDS011;27468;47.460;19.034;2023-04-29T08:53:22;4.38;;;2.97;;
41799;SDS011;27468;47.460;19.034;2023-04-29T08:55:47;4.15;;;2.92;;
41799;SDS011;27468;47.460;19.034;2023-04-29T08:58:13;3.90;;;2.97;;
41799;SDS011;27468;47.460;19.034;2023-04-29T09:00:43;3.97;;;2.95;;
41799;SDS011;27468;47.460;19.034;2023-04-29T09:03:21;6.20;;;3.55;;
41799;SDS011;27468;47.460;19.034;2023-04-29T09:05:54;4.90;;;3.05;;
41799;SDS011;27468;47.460;19.034;2023-04-29T09:08:22;3.90;;;2.60;;
41799;SDS011;27468;47.460;19.034;2023-04-29T09:10:51;4.90;;;3.28;;
41799;SDS011;27468;47.460;19.034;2023-04-29T09:13:27;4.30;;;2.92;;
41799;SDS011;27468;47.460;19.034;2023-04-29T09:15:53;5.22;;;3.00;;
41799;SDS011;27468;47.460;19.034;2023-04-29T09:18:41;4.47;;;3.03;;
41799;SDS011;27468;47.460;19.034;2023-04-29T09:23:41;5.57;;;2.90;;
41799;SDS011;27468;47.460;19.034;2023-04-29T09:26:09;4.50;;;3.42;;
41799;SDS011;27468;47.460;19.034;2023-04-29T09:28:35;4.65;;;2.97;;
41799;SDS011;27468;47.460;19.034;2023-04-29T09:31:01;3.58;;;2.80;;
41799;SDS011;27468;47.460;19.034;2023-04-29T09:33:44;3.85;;;2.55;;
41799;SDS011;27468;47.460;19.034;2023-04-29T09:36:15;4.32;;;2.47;;
41799;SDS011;27468;47.460;19.034;2023-04-29T09:39:23;4.13;;;3.15;;
41799;SDS011;27468;47.460;19.034;2023-04-29T09:44:21;5.07;;;3.33;;
41799;SDS011;27468;47.460;19.034;2023-04-29T09:49:53;3.47;;;2.58;;
41799;SDS011;27468;47.460;19.034;2023-04-29T09:52:40;3.33;;;2.60;;
41799;SDS011;27468;47.460;19.034;2023-04-29T09:55:06;4.90;;;2.97;;
41799;SDS011;27468;47.460;19.034;2023-04-29T09:57:41;3.92;;;3.00;;
41799;SDS011;27468;47.460;19.034;2023-04-29T10:00:06;3.97;;;2.45;;
41799;SDS011;27468;47.460;19.034;2023-04-29T10:02:32;3.65;;;2.33;;
41799;SDS011;27468;47.460;19.034;2023-04-29T10:04:58;3.10;;;2.75;;
41799;SDS011;27468;47.460;19.034;2023-04-29T10:07:24;3.95;;;2.70;;
41799;SDS011;27468;47.460;19.034;2023-04-29T10:09:51;3.15;;;2.42;;
41799;SDS011;27468;47.460;19.034;2023-04-29T10:12:18;3.90;;;2.97;;
41799;SDS011;27468;47.460;19.034;2023-04-29T10:14:46;5.22;;;2.80;;
41799;SDS011;27468;47.460;19.034;2023-04-29T10:17:40;3.47;;;2.70;;
41799;SDS011;27468;47.460;19.034;2023-04-29T10:20:18;3.65;;;2.97;;
41799;SDS011;27468;47.460;19.034;2023-04-29T10:22:48;4.22;;;2.40;;
41799;SDS011;27468;47.460;19.034;2023-04-29T10:25:15;3.25;;;2.40;;
41799;SDS011;27468;47.460;19.034;2023-04-29T10:27:42;3.85;;;2.75;;
41799;SDS011;27468;47.460;19.034;2023-04-29T10:30:12;4.25;;;2.60;;
41799;SDS011;27468;47.460;19.034;2023-04-29T10:32:40;4.72;;;2.80;;
41799;SDS011;27468;47.460;19.034;2023-04-29T10:35:10;3.92;;;3.08;;
41799;SDS011;27468;47.460;19.034;2023-04-29T10:37:38;5.28;;;2.40;;
41799;SDS011;27468;47.460;19.034;2023-04-29T10:45:31;3.63;;;2.70;;
41799;SDS011;27468;47.460;19.034;2023-04-29T10:50:34;4.57;;;2.58;;
41799;SDS011;27468;47.460;19.034;2023-04-29T10:55:39;3.75;;;2.30;;
41799;SDS011;27468;47.460;19.034;2023-04-29T10:58:08;3.50;;;2.13;;
41799;SDS011;27468;47.460;19.034;2023-04-29T11:01:05;3.45;;;2.60;;
41799;SDS011;27468;47.460;19.034;2023-04-29T11:06:36;3.95;;;2.38;;
41799;SDS011;27468;47.460;19.034;2023-04-29T11:14:23;4.50;;;2.63;;
41799;SDS011;27468;47.460;19.034;2023-04-29T11:16:51;3.50;;;2.20;;
41799;SDS011;27468;47.460;19.034;2023-04-29T11:19:18;2.97;;;2.15;;
41799;SDS011;27468;47.460;19.034;2023-04-29T11:21:44;3.75;;;2.30;;
41799;SDS011;27468;47.460;19.034;2023-04-29T11:24:14;2.90;;;2.05;;
41799;SDS011;27468;47.460;19.034;2023-04-29T11:26:40;4.25;;;2.60;;
41799;SDS011;27468;47.460;19.034;2023-04-29T11:29:06;2.40;;;1.88;;
41799;SDS011;27468;47.460;19.034;2023-04-29T11:31:36;3.58;;;2.15;;
41799;SDS011;27468;47.460;19.034;2023-04-29T11:34:03;2.92;;;2.05;;
41799;SDS011;27468;47.460;19.034;2023-04-29T11:36:32;3.08;;;2.10;;
41799;SDS011;27468;47.460;19.034;2023-04-29T11:39:01;2.70;;;2.20;;
41799;SDS011;27468;47.460;19.034;2023-04-29T11:41:29;3.47;;;2.28;;
41799;SDS011;27468;47.460;19.034;2023-04-29T11:43:56;2.38;;;2.08;;
41799;SDS011;27468;47.460;19.034;2023-04-29T11:46:23;4.00;;;2.33;;
41799;SDS011;27468;47.460;19.034;2023-04-29T11:48:49;3.35;;;2.17;;
41799;SDS011;27468;47.460;19.034;2023-04-29T11:51:15;3.15;;;2.40;;
41799;SDS011;27468;47.460;19.034;2023-04-29T11:53:41;2.67;;;2.00;;
41799;SDS011;27468;47.460;19.034;2023-04-29T11:56:08;3.30;;;2.40;;
41799;SDS011;27468;47.460;19.034;2023-04-29T11:58:34;2.45;;;1.95;;
41799;SDS011;27468;47.460;19.034;2023-04-29T12:01:01;2.85;;;2.40;;
41799;SDS011;27468;47.460;19.034;2023-04-29T12:03:28;3.97;;;2.70;;
41799;SDS011;27468;47.460;19.034;2023-04-29T12:05:55;4.28;;;2.70;;
41799;SDS011;27468;47.460;19.034;2023-04-29T12:08:25;2.97;;;2.15;;
41799;SDS011;27468;47.460;19.034;2023-04-29T12:10:53;3.42;;;2.40;;
41799;SDS011;27468;47.460;19.034;2023-04-29T12:13:23;3.15;;;2.55;;
41799;SDS011;27468;47.460;19.034;2023-04-29T12:15:51;5.05;;;2.55;;
41799;SDS011;27468;47.460;19.034;2023-04-29T12:18:18;3.00;;;2.30;;
41799;SDS011;27468;47.460;19.034;2023-04-29T12:20:45;6.28;;;3.35;;
41799;SDS011;27468;47.460;19.034;2023-04-29T12:23:15;4.15;;;2.50;;
41799;SDS011;27468;47.460;19.034;2023-04-29T12:25:51;3.97;;;2.53;;
41799;SDS011;27468;47.460;19.034;2023-04-29T12:28:18;3.28;;;2.28;;
41799;SDS011;27468;47.460;19.034;2023-04-29T12:30:44;5.72;;;2.78;;
41799;SDS011;27468;47.460;19.034;2023-04-29T12:33:14;3.67;;;2.47;;
41799;SDS011;27468;47.460;19.034;2023-04-29T12:35:51;3.85;;;2.63;;
41799;SDS011;27468;47.460;19.034;2023-04-29T12:38:21;4.03;;;2.47;;
41799;SDS011;27468;47.460;19.034;2023-04-29T12:40:48;2.70;;;2.50;;
41799;SDS011;27468;47.460;19.034;2023-04-29T12:43:15;2.75;;;2.15;;
41799;SDS011;27468;47.460;19.034;2023-04-29T12:45:40;3.15;;;2.33;;
41799;SDS011;27468;47.460;19.034;2023-04-29T12:48:06;2.30;;;2.10;;
41799;SDS011;27468;47.460;19.034;2023-04-29T12:50:33;4.07;;;2.63;;
41799;SDS011;27468;47.460;19.034;2023-04-29T12:53:02;2.80;;;2.30;;
41799;SDS011;27468;47.460;19.034;2023-04-29T12:55:29;3.03;;;2.10;;
41799;SDS011;27468;47.460;19.034;2023-04-29T12:57:59;2.60;;;2.00;;
41799;SDS011;27468;47.460;19.034;2023-04-29T13:00:25;4.53;;;2.35;;
41799;SDS011;27468;47.460;19.034;2023-04-29T13:02:50;2.95;;;2.40;;
41799;SDS011;27468;47.460;19.034;2023-04-29T13:05:16;3.00;;;2.40;;
41799;SDS011;27468;47.460;19.034;2023-04-29T13:07:41;2.85;;;2.30;;
41799;SDS011;27468;47.460;19.034;2023-04-29T13:10:07;2.85;;;2.25;;
41799;SDS011;27468;47.460;19.034;2023-04-29T13:12:33;5.28;;;2.80;;
41799;SDS011;27468;47.460;19.034;2023-04-29T13:14:58;3.75;;;2.15;;
41799;SDS011;27468;47.460;19.034;2023-04-29T13:17:23;2.90;;;1.88;;
41799;SDS011;27468;47.460;19.034;2023-04-29T13:19:49;2.72;;;2.33;;
41799;SDS011;27468;47.460;19.034;2023-04-29T13:22:15;3.13;;;2.20;;
41799;SDS011;27468;47.460;19.034;2023-04-29T13:24:40;2.63;;;2.00;;
41799;SDS011;27468;47.460;19.034;2023-04-29T13:27:06;3.80;;;2.15;;
41799;SDS011;27468;47.460;19.034;2023-04-29T13:29:31;2.97;;;2.10;;
41799;SDS011;27468;47.460;19.034;2023-04-29T13:31:56;2.58;;;2.15;;
41799;SDS011;27468;47.460;19.034;2023-04-29T13:34:22;2.92;;;1.95;;
41799;SDS011;27468;47.460;19.034;2023-04-29T13:36:47;2.85;;;1.95;;
41799;SDS011;27468;47.460;19.034;2023-04-29T13:39:13;5.22;;;2.78;;
41799;SDS011;27468;47.460;19.034;2023-04-29T13:41:39;3.28;;;2.03;;
41799;SDS011;27468;47.460;19.034;2023-04-29T13:44:04;4.13;;;2.38;;
41799;SDS011;27468;47.460;19.034;2023-04-29T13:46:30;2.42;;;2.03;;
41799;SDS011;27468;47.460;19.034;2023-04-29T13:48:56;2.72;;;2.00;;
41799;SDS011;27468;47.460;19.034;2023-04-29T13:51:22;2.63;;;2.03;;
41799;SDS011;27468;47.460;19.034;2023-04-29T13:53:47;3.10;;;1.70;;
41799;SDS011;27468;47.460;19.034;2023-04-29T13:56:13;3.75;;;2.25;;
41799;SDS011;27468;47.460;19.034;2023-04-29T13:58:38;3.05;;;1.80;;
41799;SDS011;27468;47.460;19.034;2023-04-29T14:01:05;2.95;;;2.40;;
41799;SDS011;27468;47.460;19.034;2023-04-29T14:03:31;2.20;;;1.92;;
41799;SDS011;27468;47.460;19.034;2023-04-29T14:05:56;3.22;;;1.90;;
41799;SDS011;27468;47.460;19.034;2023-04-29T14:08:22;2.67;;;1.88;;
41799;SDS011;27468;47.460;19.034;2023-04-29T14:10:47;2.28;;;1.88;;
41799;SDS011;27468;47.460;19.034;2023-04-29T14:13:13;4.20;;;2.10;;
41799;SDS011;27468;47.460;19.034;2023-04-29T14:15:38;2.75;;;2.10;;
41799;SDS011;27468;47.460;19.034;2023-04-29T14:18:04;3.30;;;2.15;;
41799;SDS011;27468;47.460;19.034;2023-04-29T14:20:31;2.72;;;2.03;;
41799;SDS011;27468;47.460;19.034;2023-04-29T14:22:57;2.20;;;1.60;;
41799;SDS011;27468;47.460;19.034;2023-04-29T14:25:22;2.40;;;1.70;;
41799;SDS011;27468;47.460;19.034;2023-04-29T14:27:48;1.77;;;1.58;;
41799;SDS011;27468;47.460;19.034;2023-04-29T14:30:13;1.80;;;1.67;;
41799;SDS011;27468;47.460;19.034;2023-04-29T14:32:39;1.98;;;1.60;;
41799;SDS011;27468;47.460;19.034;2023-04-29T14:35:04;2.78;;;1.63;;
41799;SDS011;27468;47.460;19.034;2023-04-29T14:37:30;2.47;;;1.75;;
41799;SDS011;27468;47.460;19.034;2023-04-29T14:39:56;2.90;;;1.75;;
41799;SDS011;27468;47.460;19.034;2023-04-29T14:42:21;2.47;;;1.65;;
41799;SDS011;27468;47.460;19.034;2023-04-29T14:44:46;2.15;;;1.58;;
41799;SDS011;27468;47.460;19.034;2023-04-29T14:47:12;2.45;;;1.60;;
41799;SDS011;27468;47.460;19.034;2023-04-29T14:49:37;1.60;;;1.50;;
41799;SDS011;27468;47.460;19.034;2023-04-29T14:52:03;1.88;;;1.52;;
41799;SDS011;27468;47.460;19.034;2023-04-29T14:54:29;3.28;;;1.70;;
41799;SDS011;27468;47.460;19.034;2023-04-29T14:56:55;4.40;;;2.00;;
41799;SDS011;27468;47.460;19.034;2023-04-29T14:59:20;2.50;;;1.85;;
41799;SDS011;27468;47.460;19.034;2023-04-29T15:01:46;2.58;;;2.00;;
41799;SDS011;27468;47.460;19.034;2023-04-29T15:04:11;2.38;;;1.80;;
41799;SDS011;27468;47.460;19.034;2023-04-29T15:06:38;2.30;;;1.85;;
41799;SDS011;27468;47.460;19.034;2023-04-29T15:09:04;2.40;;;1.75;;
41799;SDS011;27468;47.460;19.034;2023-04-29T15:11:30;3.00;;;2.03;;
41799;SDS011;27468;47.460;19.034;2023-04-29T15:13:56;2.08;;;1.75;;
41799;SDS011;27468;47.460;19.034;2023-04-29T15:16:22;2.88;;;1.80;;